Time;durP1;ratioP1;P1;durP2;ratioP2;P2;SDS_P1;SDS_P2;PMS_P1;PMS_P2;Temp;Humidity;BMP_temperature;BMP_pressure;BME280_temperature;BME280_humidity;BME280_pressure;Samples;Min_cycle;Max_cycle;Signal;HPM_P1;HPM_P2
2023/10/16 00:01:10;;;;;;;8.73;1.20;;;6.80;99.90;;;;;;5026364;28;191953;-72
2023/10/16 00:03:41;;;;;;;8.00;1.60;;;6.80;99.90;;;;;;5058556;28;20044;-72
2023/10/16 00:06:11;;;;;;;10.88;1.60;;;6.80;99.90;;;;;;5021453;28;20064;-72
2023/10/16 00:08:47;;;;;;;12.10;1.90;;;6.80;99.90;;;;;;5060237;28;20060;-73
2023/10/16 00:11:18;;;;;;;9.52;1.48;;;6.80;99.90;;;;;;4997407;28;250317;-71
2023/10/16 00:13:47;;;;;;;12.50;1.60;;;6.80;99.90;;;;;;5063993;28;20070;-73
2023/10/16 00:16:17;;;;;;;10.00;1.50;;;6.80;99.90;;;;;;5021985;28;52203;-73
2023/10/16 00:18:47;;;;;;;9.70;1.50;;;6.80;99.90;;;;;;5060403;28;20045;-73
2023/10/16 00:21:13;;;;;;;10.88;1.40;;;6.80;99.90;;;;;;4990399;28;224735;-72
2023/10/16 00:23:41;;;;;;;9.00;1.27;;;6.90;99.90;;;;;;5059347;28;20518;-71
2023/10/16 00:26:19;;;;;;;9.02;1.50;;;6.90;99.90;;;;;;5016126;28;225314;-72
2023/10/16 00:28:46;;;;;;;8.77;1.42;;;7.00;99.90;;;;;;5058046;28;20151;-72
2023/10/16 00:31:20;;;;;;;12.13;1.45;;;7.00;99.90;;;;;;4999893;28;55552;-71
2023/10/16 00:33:51;;;;;;;7.68;1.40;;;7.10;99.90;;;;;;5063600;28;20041;-71
2023/10/16 00:36:17;;;;;;;9.30;1.50;;;7.10;99.90;;;;;;5016054;28;76456;-72
2023/10/16 00:38:48;;;;;;;12.15;1.75;;;7.10;99.90;;;;;;5063834;28;20299;-73
2023/10/16 00:43:41;;;;;;;8.88;1.40;;;7.10;99.90;;;;;;5060144;28;19926;-71
2023/10/16 00:46:09;;;;;;;10.30;1.20;;;7.10;99.90;;;;;;4996983;28;181023;-72
2023/10/16 00:48:36;;;;;;;10.60;1.55;;;7.10;99.90;;;;;;5059609;28;20049;-72
2023/10/16 00:51:08;;;;;;;10.93;1.27;;;7.10;99.90;;;;;;4999516;28;216034;-71
2023/10/16 00:53:36;;;;;;;8.23;1.23;;;7.10;99.90;;;;;;5056886;28;20069;-73
2023/10/16 00:56:14;;;;;;;9.82;1.70;;;7.10;99.90;;;;;;5000115;28;249735;-71
2023/10/16 00:58:42;;;;;;;8.32;1.38;;;7.10;99.90;;;;;;5066682;28;20036;-72
2023/10/16 01:01:12;;;;;;;9.15;1.40;;;7.10;99.90;;;;;;4999831;28;121980;-72
2023/10/16 01:03:40;;;;;;;8.85;1.35;;;7.10;99.90;;;;;;5058122;28;20053;-72
2023/10/16 01:06:16;;;;;;;5.50;1.10;;;7.00;99.90;;;;;;5003611;28;176340;-72
2023/10/16 01:08:51;;;;;;;10.55;1.27;;;7.00;99.90;;;;;;5062854;28;20044;-72
2023/10/16 01:11:19;;;;;;;12.85;1.02;;;7.00;99.90;;;;;;5006847;28;20056;-72
2023/10/16 01:13:50;;;;;;;6.75;1.30;;;7.00;99.90;;;;;;5059174;28;20497;-71
2023/10/16 01:16:18;;;;;;;6.57;1.15;;;7.00;99.90;;;;;;4986734;28;245016;-71
2023/10/16 01:18:45;;;;;;;8.95;1.30;;;7.10;99.90;;;;;;5053716;28;20049;-73
2023/10/16 01:21:14;;;;;;;5.15;1.00;;;7.00;99.90;;;;;;5001629;28;136960;-72
2023/10/16 01:23:44;;;;;;;10.25;1.40;;;7.00;99.90;;;;;;5058887;28;20048;-71
2023/10/16 01:26:13;;;;;;;9.32;1.40;;;7.10;99.90;;;;;;5013660;28;20044;-71
2023/10/16 01:28:39;;;;;;;9.13;1.30;;;7.10;99.90;;;;;;5053017;28;20052;-72
2023/10/16 01:31:05;;;;;;;7.47;1.15;;;7.10;99.90;;;;;;4991968;28;40873;-72
2023/10/16 01:33:31;;;;;;;9.23;1.10;;;7.20;99.90;;;;;;5059136;28;20513;-73
2023/10/16 01:35:57;;;;;;;7.53;1.13;;;7.20;99.90;;;;;;5001677;28;89393;-72
2023/10/16 01:38:24;;;;;;;10.52;1.25;;;7.20;99.90;;;;;;5058162;28;20530;-71
2023/10/16 01:43:31;;;;;;;6.68;1.20;;;7.20;99.90;;;;;;5058785;28;20414;-72
2023/10/16 01:46:07;;;;;;;11.77;1.20;;;7.30;99.90;;;;;;4999025;28;37447;-72
2023/10/16 01:48:47;;;;;;;7.25;1.08;;;7.30;99.90;;;;;;5057177;28;20056;-71
2023/10/16 01:51:20;;;;;;;8.60;1.20;;;7.40;99.90;;;;;;4969703;28;242931;-71
2023/10/16 01:53:52;;;;;;;9.50;1.20;;;7.40;99.90;;;;;;5057260;28;20049;-72
2023/10/16 01:56:21;;;;;;;7.40;1.10;;;7.40;99.90;;;;;;4991053;28;20055;-72
2023/10/16 01:58:52;;;;;;;10.32;1.27;;;7.40;99.90;;;;;;5057408;28;20061;-72
2023/10/16 02:01:20;;;;;;;8.70;1.37;;;7.30;99.90;;;;;;4990561;28;20053;-71
2023/10/16 02:03:48;;;;;;;8.30;1.02;;;7.30;99.90;;;;;;5058315;28;20052;-72
2023/10/16 02:06:17;;;;;;;6.22;1.40;;;7.30;99.90;;;;;;4990735;28;186609;-72
2023/10/16 02:08:48;;;;;;;11.10;1.42;;;7.30;99.90;;;;;;5060381;28;20837;-72
2023/10/16 02:11:16;;;;;;;9.40;1.67;;;7.30;99.90;;;;;;5011006;28;255616;-72
2023/10/16 02:13:43;;;;;;;9.70;1.20;;;7.40;99.90;;;;;;5055047;28;20534;-72
2023/10/16 02:16:12;;;;;;;7.20;1.15;;;7.40;99.90;;;;;;4984960;28;45660;-72
2023/10/16 02:18:44;;;;;;;7.32;1.17;;;7.40;99.90;;;;;;5058169;28;20049;-72
2023/10/16 02:21:12;;;;;;;9.00;1.38;;;7.30;99.90;;;;;;5015142;28;22436;-72
2023/10/16 02:23:38;;;;;;;8.05;1.40;;;7.30;99.90;;;;;;5050782;28;20060;-72
2023/10/16 02:26:08;;;;;;;7.97;1.35;;;7.30;99.90;;;;;;5013118;28;109384;-72
2023/10/16 02:28:36;;;;;;;14.05;1.38;;;7.30;99.90;;;;;;5068014;28;20053;-72
2023/10/16 02:31:15;;;;;;;8.80;1.15;;;7.30;99.90;;;;;;5017868;28;157162;-72
2023/10/16 02:33:54;;;;;;;8.38;1.25;;;7.30;99.90;;;;;;5060865;28;20052;-72
2023/10/16 02:36:21;;;;;;;5.65;1.17;;;7.30;99.90;;;;;;4984245;28;221571;-72
2023/10/16 02:38:47;;;;;;;8.35;1.20;;;7.30;99.90;;;;;;5057890;28;22423;-73
2023/10/16 02:41:15;;;;;;;7.35;1.00;;;7.30;99.90;;;;;;5002775;28;158931;-73
2023/10/16 02:43:46;;;;;;;8.30;1.20;;;7.40;99.90;;;;;;5055944;28;20063;-73
2023/10/16 02:46:13;;;;;;;;;;;7.30;99.90;;;;;;5017738;28;30663;-72
2023/10/16 02:48:43;;;;;;;5.90;1.08;;;7.30;99.90;;;;;;5053559;28;19917;-71
2023/10/16 02:51:10;;;;;;;7.47;1.10;;;7.30;99.90;;;;;;4979392;28;182625;-72
2023/10/16 02:53:41;;;;;;;7.70;1.00;;;7.30;99.90;;;;;;5054593;28;20063;-72
2023/10/16 02:58:57;;;;;;;9.30;1.20;;;7.30;99.90;;;;;;5057126;28;20044;-72
2023/10/16 03:01:23;;;;;;;9.32;1.10;;;7.30;99.90;;;;;;4975101;28;222275;-73
2023/10/16 03:03:50;;;;;;;9.75;1.30;;;7.30;99.90;;;;;;5058287;28;20260;-72
2023/10/16 03:06:17;;;;;;;5.82;1.10;;;7.30;99.90;;;;;;4883646;28;3021765;-71
2023/10/16 03:08:49;;;;;;;8.52;1.20;;;7.30;99.90;;;;;;5056248;28;20060;-73
2023/10/16 03:11:16;;;;;;;8.38;1.83;;;7.20;99.90;;;;;;5010953;28;86936;-72
2023/10/16 03:13:50;;;;;;;8.88;1.23;;;7.20;99.90;;;;;;5061108;28;20055;-72
2023/10/16 03:16:18;;;;;;;8.95;1.30;;;7.20;99.90;;;;;;5018012;28;157605;-72
2023/10/16 03:18:47;;;;;;;9.73;1.27;;;7.20;99.90;;;;;;5054026;28;20049;-72
2023/10/16 03:23:46;;;;;;;5.75;1.13;;;7.30;99.90;;;;;;5061152;28;20056;-72
2023/10/16 03:26:25;;;;;;;9.73;1.30;;;7.30;99.90;;;;;;5026660;28;172403;-71
2023/10/16 03:28:53;;;;;;;6.22;1.08;;;7.30;99.90;;;;;;5055320;28;20271;-72
2023/10/16 03:31:23;;;;;;;7.93;1.33;;;7.30;99.90;;;;;;5025400;28;46662;-71
2023/10/16 03:33:50;;;;;;;9.30;1.45;;;7.30;99.90;;;;;;5060007;28;20040;-71
2023/10/16 03:36:17;;;;;;;11.60;1.60;;;7.40;99.90;;;;;;4994287;28;221487;-72
2023/10/16 03:38:43;;;;;;;9.85;1.23;;;7.40;99.90;;;;;;5059051;28;20052;-72
2023/10/16 03:43:46;;;;;;;9.63;1.35;;;7.50;99.90;;;;;;5060739;28;20041;-71
2023/10/16 03:46:14;;;;;;;11.60;1.50;;;7.50;99.90;;;;;;5013802;28;147994;-72
2023/10/16 03:48:41;;;;;;;9.13;1.40;;;7.50;99.90;;;;;;5059916;28;20055;-72
2023/10/16 03:51:08;;;;;;;6.88;1.45;;;7.50;99.90;;;;;;4985621;28;213956;-73
2023/10/16 03:53:35;;;;;;;9.68;1.30;;;7.50;99.90;;;;;;5059442;28;20770;-72
2023/10/16 03:56:02;;;;;;;12.13;1.58;;;7.50;99.90;;;;;;4997852;28;48243;-72
2023/10/16 03:58:33;;;;;;;7.32;1.30;;;7.50;99.90;;;;;;5037755;28;20051;-72
2023/10/16 04:01:07;;;;;;;9.43;1.50;;;7.60;99.90;;;;;;5007994;28;137349;-72
2023/10/16 04:03:46;;;;;;;8.40;1.80;;;7.60;99.90;;;;;;5053068;28;20060;-72
2023/10/16 04:06:19;;;;;;;9.63;1.70;;;7.60;99.90;;;;;;5012650;28;226996;-72
2023/10/16 04:08:49;;;;;;;9.38;1.90;;;7.60;99.90;;;;;;5062338;28;20053;-71
2023/10/16 04:11:16;;;;;;;9.70;1.42;;;7.60;99.90;;;;;;5018518;28;35383;-73
2023/10/16 04:13:48;;;;;;;10.13;1.67;;;7.60;99.90;;;;;;5042088;28;20061;-72
2023/10/16 04:16:42;;;;;;;8.13;1.67;;;7.60;99.90;;;;;;5026249;28;69888;-73
2023/10/16 04:21:43;;;;;;;10.15;1.85;;;7.60;99.90;;;;;;4991638;28;20049;-74
2023/10/16 04:29:34;;;;;;;9.18;1.80;;;7.60;99.90;;;;;;5049282;28;20331;-73
2023/10/16 04:34:32;;;;;;;12.73;2.33;;;7.60;99.90;;;;;;5028794;28;20048;-72
2023/10/16 04:45:25;;;;;;;12.55;1.67;;;7.60;99.90;;;;;;5017767;28;29384;-74
2023/10/16 04:50:30;;;;;;;7.82;1.88;;;7.50;99.90;;;;;;5004144;28;149462;-74
2023/10/16 05:06:27;;;;;;;11.18;2.40;;;7.50;99.90;;;;;;5018149;28;191337;-75
2023/10/16 05:19:53;;;;;;;9.85;2.00;;;7.50;99.90;;;;;;4994382;28;183245;-73
2023/10/16 06:14:36;;;;;;;10.02;2.80;;;7.00;99.90;;;;;;5026734;28;20053;-71
2023/10/16 06:17:24;;;;;;;9.82;2.30;;;7.00;99.90;;;;;;5022703;28;74845;-73
2023/10/16 06:19:51;;;;;;;14.90;2.85;;;7.00;99.90;;;;;;5010949;28;151867;-74
2023/10/16 06:22:17;;;;;;;12.15;2.60;;;7.10;99.90;;;;;;5055736;28;20057;-73
2023/10/16 06:24:47;;;;;;;11.27;2.60;;;7.10;99.90;;;;;;5030011;28;20060;-74
2023/10/16 06:27:19;;;;;;;9.82;2.30;;;7.10;99.90;;;;;;5025201;28;20080;-72
2023/10/16 06:29:53;;;;;;;8.50;2.08;;;7.20;99.90;;;;;;5019311;28;132052;-72
2023/10/16 06:32:21;;;;;;;10.32;2.40;;;7.20;99.90;;;;;;5039659;28;20045;-74
2023/10/16 06:35:00;;;;;;;15.05;2.95;;;7.20;99.90;;;;;;5035473;28;158287;-72
2023/10/16 06:37:35;;;;;;;10.57;2.40;;;7.30;99.90;;;;;;5042352;28;20057;-74
2023/10/16 06:40:03;;;;;;;10.40;2.53;;;7.30;99.90;;;;;;5011325;28;231008;-74
2023/10/16 06:42:29;;;;;;;10.23;2.65;;;7.40;99.90;;;;;;5040672;28;20060;-74
2023/10/16 06:45:06;;;;;;;10.02;2.42;;;7.50;99.90;;;;;;5016279;28;46323;-74
2023/10/16 06:47:47;;;;;;;9.77;2.50;;;7.50;99.90;;;;;;5056920;28;20079;-74
2023/10/16 06:52:53;;;;;;;10.68;2.28;;;7.70;99.90;;;;;;5052277;28;20643;-72
2023/10/16 06:55:21;;;;;;;11.10;2.20;;;7.70;99.90;;;;;;5008134;28;20052;-73
2023/10/16 06:57:47;;;;;;;11.85;2.30;;;7.80;99.90;;;;;;5039852;28;20052;-73
2023/10/16 07:00:33;;;;;;;12.35;2.33;;;7.90;99.90;;;;;;5016064;28;20115;-73
2023/10/16 07:03:02;;;;;;;12.07;2.40;;;7.90;99.90;;;;;;5051658;28;20048;-73
2023/10/16 07:05:42;;;;;;;11.93;2.65;;;8.00;99.90;;;;;;5001789;28;20053;-73
2023/10/16 07:08:19;;;;;;;13.15;2.55;;;8.10;99.90;;;;;;5046045;28;20532;-73
2023/10/16 07:10:50;;;;;;;11.27;2.10;;;8.10;99.90;;;;;;5011961;28;20578;-73
2023/10/16 07:13:27;;;;;;;8.32;2.08;;;8.10;99.90;;;;;;5051346;28;20052;-73
2023/10/16 07:16:02;;;;;;;13.35;2.20;;;8.20;99.90;;;;;;4983255;28;20049;-73
2023/10/16 07:18:32;;;;;;;10.50;2.10;;;8.30;99.90;;;;;;5036621;28;20057;-73
2023/10/16 07:20:59;;;;;;;12.02;2.17;;;8.30;99.90;;;;;;5007029;28;20967;-74
2023/10/16 07:23:30;;;;;;;11.75;2.58;;;8.40;99.90;;;;;;5055561;28;20063;-73
2023/10/16 07:25:58;;;;;;;9.07;1.95;;;8.50;99.90;;;;;;5005971;28;20048;-73
2023/10/16 07:28:28;;;;;;;8.48;2.20;;;8.50;99.90;;;;;;5028855;28;20056;-72
2023/10/16 07:31:05;;;;;;;8.93;2.17;;;8.60;99.90;;;;;;5019761;28;20119;-74
2023/10/16 07:33:32;;;;;;;8.15;1.75;;;8.60;99.90;;;;;;5057019;28;20060;-74
2023/10/16 07:35:59;;;;;;;19.08;2.60;;;8.70;99.90;;;;;;4991672;28;20044;-72
2023/10/16 07:38:26;;;;;;;8.85;2.20;;;8.70;99.90;;;;;;5052817;28;20044;-73
2023/10/16 07:40:54;;;;;;;10.27;2.28;;;8.80;99.90;;;;;;5007373;28;20041;-73
2023/10/16 07:43:28;;;;;;;9.77;2.10;;;8.80;99.90;;;;;;5052966;28;20146;-72
2023/10/16 07:48:44;;;;;;;13.80;2.28;;;8.90;99.90;;;;;;5057794;28;20499;-73
2023/10/16 07:51:17;;;;;;;10.48;2.40;;;9.00;99.90;;;;;;4984551;28;72022;-72
2023/10/16 07:53:43;;;;;;;11.68;2.00;;;9.00;99.90;;;;;;5057719;28;20075;-72
2023/10/16 07:59:08;;;;;;;10.27;2.40;;;9.10;99.90;;;;;;5064700;28;20056;-73
2023/10/16 08:01:42;;;;;;;12.35;2.28;;;9.20;99.90;;;;;;5020312;28;20053;-73
2023/10/16 08:04:19;;;;;;;10.68;2.28;;;9.20;99.90;;;;;;5061250;28;20068;-72
2023/10/16 08:06:46;;;;;;;11.52;2.20;;;9.30;99.90;;;;;;5005663;28;20048;-73
2023/10/16 08:11:57;;;;;;;8.52;2.00;;;9.40;99.90;;;;;;4991964;28;20044;-73
2023/10/16 08:14:30;;;;;;;8.38;1.70;;;9.50;99.90;;;;;;5047488;28;20548;-74
2023/10/16 08:17:04;;;;;;;10.38;1.85;;;9.60;99.90;;;;;;5013991;28;20049;-72
2023/10/16 08:19:36;;;;;;;13.00;2.17;;;9.70;99.90;;;;;;5023944;28;20060;-73
2023/10/16 08:22:03;;;;;;;11.65;1.80;;;9.70;99.90;;;;;;5058850;28;20053;-72
2023/10/16 08:24:30;;;;;;;9.18;1.80;;;9.90;99.90;;;;;;5021231;28;20060;-72
2023/10/16 08:27:40;;;;;;;9.70;1.85;;;10.00;99.90;;;;;;5055508;28;20060;-71
2023/10/16 08:29:53;;;;;;;10.27;2.40;;;10.10;99.90;;;;;;5019273;28;20053;-72
2023/10/16 08:35:17;;;;;;;12.65;1.75;;;10.50;99.90;;;;;;5022263;28;19991;-73
2023/10/16 08:37:43;;;;;;;9.10;1.80;;;10.50;99.90;;;;;;5059065;28;20449;-73
2023/10/16 08:40:19;;;;;;;12.05;1.85;;;10.60;99.90;;;;;;5018783;28;20049;-72
2023/10/16 08:43:00;;;;;;;10.00;1.70;;;10.50;99.90;;;;;;5048341;28;21525;-73
2023/10/16 08:45:29;;;;;;;10.25;1.70;;;10.70;99.90;;;;;;5011979;28;20508;-73
2023/10/16 08:47:57;;;;;;;9.35;1.45;;;10.80;99.90;;;;;;5051240;28;20045;-72
2023/10/16 08:50:40;;;;;;;13.60;1.75;;;10.80;99.90;;;;;;5004815;28;113961;-73
2023/10/16 08:53:09;;;;;;;11.82;1.85;;;10.70;99.90;;;;;;5061728;28;20057;-72
2023/10/16 08:55:35;;;;;;;10.88;2.00;;;10.70;99.90;;;;;;5009855;28;20052;-72
2023/10/16 08:58:04;;;;;;;10.05;1.88;;;10.80;99.90;;;;;;5058205;28;20127;-72
2023/10/16 09:00:31;;;;;;;8.55;1.45;;;10.80;99.90;;;;;;5015969;28;21352;-72
2023/10/16 09:03:00;;;;;;;13.13;2.08;;;11.00;99.90;;;;;;5059628;28;20522;-72
2023/10/16 09:05:26;;;;;;;9.82;1.40;;;11.10;99.90;;;;;;5009067;28;20056;-72
2023/10/16 09:07:52;;;;;;;9.05;1.50;;;11.20;99.90;;;;;;5048291;28;20052;-71
2023/10/16 09:10:21;;;;;;;11.20;1.60;;;11.30;99.90;;;;;;5017783;28;20495;-72
2023/10/16 09:12:54;;;;;;;11.68;1.83;;;11.40;99.90;;;;;;5059606;28;20033;-73
2023/10/16 09:15:26;;;;;;;12.07;1.73;;;11.50;99.90;;;;;;5022097;28;20045;-72
2023/10/16 09:17:54;;;;;;;11.20;1.98;;;11.60;99.90;;;;;;5044195;28;20053;-73
2023/10/16 09:20:32;;;;;;;10.38;1.65;;;11.70;99.90;;;;;;5018963;28;20063;-73
2023/10/16 09:23:02;;;;;;;11.18;1.73;;;11.80;99.90;;;;;;5062256;28;20047;-72
2023/10/16 09:25:31;;;;;;;10.60;1.60;;;11.80;99.90;;;;;;5018345;28;20053;-73
2023/10/16 09:27:57;;;;;;;11.07;1.67;;;11.80;99.90;;;;;;5059394;28;20151;-72
2023/10/16 09:30:28;;;;;;;11.00;1.70;;;11.90;99.90;;;;;;5018037;28;20044;-72
2023/10/16 09:32:54;;;;;;;10.73;1.48;;;12.00;99.90;;;;;;5050176;28;20056;-72
2023/10/16 09:35:30;;;;;;;10.48;1.77;;;12.00;99.90;;;;;;5013943;28;20041;-72
2023/10/16 09:38:17;;;;;;;10.63;1.40;;;12.10;99.90;;;;;;5044279;28;20044;-72
2023/10/16 09:41:37;;;;;;;13.68;2.47;;;12.10;99.90;;;;;;5007754;28;20068;-72
2023/10/16 09:43:48;;;;;;;8.20;1.33;;;12.20;99.90;;;;;;5060507;28;20741;-72
2023/10/16 09:46:33;;;;;;;12.05;1.63;;;12.30;99.90;;;;;;5004271;28;20059;-72
2023/10/16 09:49:05;;;;;;;8.30;1.33;;;12.50;99.90;;;;;;5064882;28;20059;-73
2023/10/16 09:51:35;;;;;;;11.60;1.50;;;12.60;99.90;;;;;;4981401;28;20045;-74
2023/10/16 09:54:02;;;;;;;11.25;1.80;;;12.40;99.90;;;;;;5046042;28;20057;-72
2023/10/16 09:56:39;;;;;;;11.43;1.60;;;12.30;99.90;;;;;;5001423;28;20053;-73
2023/10/16 09:59:22;;;;;;;13.25;1.60;;;12.30;99.90;;;;;;5058886;28;20055;-72
2023/10/16 10:01:51;;;;;;;27.02;3.00;;;12.20;99.90;;;;;;4990026;28;20043;-73
2023/10/16 10:04:24;;;;;;;11.45;1.98;;;12.20;99.90;;;;;;5059582;28;20538;-72
2023/10/16 10:06:57;;;;;;;13.45;1.90;;;12.20;99.90;;;;;;5001366;28;20037;-71
2023/10/16 10:09:44;;;;;;;11.75;1.70;;;12.30;99.90;;;;;;5043835;28;20052;-72
2023/10/16 10:12:42;;;;;;;10.55;1.60;;;12.40;99.90;;;;;;4994340;28;20053;-72
2023/10/16 10:15:18;;;;;;;10.25;1.50;;;12.60;99.90;;;;;;5008538;28;20049;-72
2023/10/16 10:17:54;;;;;;;11.07;1.60;;;12.80;99.90;;;;;;5041010;28;20048;-72
2023/10/16 10:20:26;;;;;;;12.45;1.80;;;12.90;99.90;;;;;;5020916;28;20063;-72
2023/10/16 10:23:05;;;;;;;11.38;1.70;;;13.00;99.90;;;;;;5050558;28;20395;-73
2023/10/16 10:25:37;;;;;;;10.93;1.80;;;13.00;99.90;;;;;;5004650;28;20524;-74
2023/10/16 10:28:32;;;;;;;10.65;1.50;;;13.00;99.90;;;;;;5051966;28;20061;-72
2023/10/16 10:31:02;;;;;;;13.45;1.63;;;12.90;99.90;;;;;;4993982;28;20049;-74
2023/10/16 10:33:37;;;;;;;11.73;1.52;;;13.00;99.90;;;;;;5054980;28;20060;-72
2023/10/16 10:36:36;;;;;;;11.73;1.63;;;13.10;99.90;;;;;;5007266;28;20052;-73
2023/10/16 10:39:29;;;;;;;7.68;1.60;;;13.10;99.90;;;;;;5062488;28;20075;-72
2023/10/16 10:42:08;;;;;;;11.93;1.50;;;13.10;99.90;;;;;;4983848;28;20044;-73
2023/10/16 10:44:43;;;;;;;7.75;1.42;;;13.10;99.90;;;;;;5024996;28;20045;-73
2023/10/16 10:47:21;;;;;;;11.55;1.50;;;13.00;99.90;;;;;;5029978;28;20041;-72
2023/10/16 10:49:59;;;;;;;10.35;1.40;;;13.20;99.90;;;;;;4999656;28;152453;-72
2023/10/16 10:52:30;;;;;;;9.82;1.25;;;13.20;99.90;;;;;;5028977;28;20574;-73
2023/10/16 10:55:00;;;;;;;;;;;13.20;99.90;;;;;;5015293;28;20053;-74
2023/10/16 10:57:26;;;;;;;9.50;1.50;;;13.30;99.90;;;;;;5046984;28;19923;-72
2023/10/16 10:59:56;;;;;;;8.45;1.42;;;13.30;99.90;;;;;;5013635;28;20057;-73
2023/10/16 11:04:58;;;;;;;8.02;1.15;;;13.30;99.90;;;;;;5012534;28;20475;-73
2023/10/16 11:07:28;;;;;;;7.72;1.23;;;13.00;99.90;;;;;;5047588;28;20053;-73
2023/10/16 11:09:57;;;;;;;10.27;1.30;;;12.90;99.90;;;;;;5013263;28;20520;-73
2023/10/16 11:12:26;;;;;;;10.43;1.30;;;13.00;99.90;;;;;;5028909;28;20056;-74
2023/10/16 11:14:54;;;;;;;9.05;1.20;;;13.20;99.90;;;;;;5010917;28;20066;-74
2023/10/16 11:17:31;;;;;;;9.20;1.35;;;13.30;99.90;;;;;;5034734;28;20498;-74
2023/10/16 11:19:57;;;;;;;8.32;1.00;;;13.20;99.90;;;;;;5017399;28;20574;-73
2023/10/16 11:22:27;;;;;;;9.65;1.50;;;13.20;99.90;;;;;;5049201;28;20067;-73
2023/10/16 11:24:54;;;;;;;8.90;1.40;;;13.40;99.90;;;;;;5017112;28;20048;-72
2023/10/16 11:27:20;;;;;;;10.45;1.38;;;13.60;99.90;;;;;;5043755;28;20065;-73
2023/10/16 11:29:47;;;;;;;9.10;1.10;;;13.50;99.90;;;;;;5024812;28;20053;-74
2023/10/16 11:32:17;;;;;;;9.77;1.77;;;13.50;99.90;;;;;;5056882;28;20052;-73
2023/10/16 11:34:45;;;;;;;9.15;1.20;;;13.70;99.90;;;;;;5005487;28;20060;-73
2023/10/16 11:37:14;;;;;;;9.10;1.17;;;13.80;99.90;;;;;;5057076;28;20049;-74
2023/10/16 11:39:44;;;;;;;8.73;1.30;;;13.90;99.90;;;;;;5023541;28;20056;-73
2023/10/16 11:42:13;;;;;;;9.30;1.10;;;14.10;99.90;;;;;;5038132;28;20060;-73
2023/10/16 11:44:40;;;;;;;10.30;1.10;;;14.40;99.90;;;;;;5023685;28;20052;-73
2023/10/16 11:47:16;;;;;;;7.53;1.08;;;14.40;99.90;;;;;;5048964;28;20053;-72
2023/10/16 11:49:53;;;;;;;7.75;1.10;;;14.30;99.90;;;;;;5008894;28;60815;-72
2023/10/16 11:52:21;;;;;;;8.77;1.30;;;14.40;99.90;;;;;;5062007;28;20044;-73
2023/10/16 11:54:51;;;;;;;9.80;1.40;;;14.20;99.90;;;;;;5006426;28;20058;-72
2023/10/16 11:57:17;;;;;;;7.17;1.20;;;14.00;99.90;;;;;;5046323;28;20056;-73
2023/10/16 11:59:44;;;;;;;6.55;1.00;;;13.90;99.90;;;;;;5023277;28;20064;-73
2023/10/16 12:02:16;;;;;;;6.28;0.93;;;13.90;99.90;;;;;;5046398;28;20049;-75
2023/10/16 12:04:44;;;;;;;8.55;1.30;;;13.80;99.90;;;;;;5022841;28;20063;-74
2023/10/16 12:07:16;;;;;;;6.45;1.23;;;13.70;99.90;;;;;;5060629;28;20060;-73
2023/10/16 12:09:47;;;;;;;9.68;1.23;;;13.70;99.90;;;;;;5023448;28;20056;-73
2023/10/16 12:12:19;;;;;;;9.27;1.40;;;13.60;99.90;;;;;;5049843;28;20064;-73
2023/10/16 12:14:49;;;;;;;8.02;1.20;;;13.70;99.90;;;;;;5004521;28;20069;-74
2023/10/16 12:17:19;;;;;;;8.73;1.40;;;13.70;99.90;;;;;;5042569;28;20507;-73
2023/10/16 12:19:47;;;;;;;11.48;1.25;;;13.80;99.90;;;;;;5013322;28;20061;-73
2023/10/16 12:22:15;;;;;;;8.77;1.10;;;13.90;99.90;;;;;;5022298;28;20064;-74
2023/10/16 12:24:44;;;;;;;8.85;1.15;;;14.00;99.90;;;;;;5023706;28;20068;-74
2023/10/16 12:27:13;;;;;;;6.78;1.00;;;14.00;99.90;;;;;;5062674;28;20056;-74
2023/10/16 12:29:41;;;;;;;8.32;1.17;;;13.90;99.90;;;;;;5022447;28;20045;-73
2023/10/16 12:32:07;;;;;;;8.88;1.40;;;13.90;99.90;;;;;;5057063;28;20049;-74
2023/10/16 12:34:34;;;;;;;9.77;1.50;;;13.90;99.90;;;;;;5022499;28;20053;-73
2023/10/16 12:37:00;;;;;;;7.82;1.27;;;13.80;99.90;;;;;;5047799;28;20408;-73
2023/10/16 12:39:28;;;;;;;10.73;1.50;;;13.80;99.90;;;;;;5036685;28;20411;-72
2023/10/16 12:41:55;;;;;;;9.63;1.48;;;13.70;99.90;;;;;;5016433;28;20059;-73
2023/10/16 12:44:24;;;;;;;6.78;0.93;;;13.70;99.90;;;;;;5052514;28;20064;-73
2023/10/16 12:46:53;;;;;;;9.02;1.25;;;13.70;99.90;;;;;;5016149;28;157629;-73
2023/10/16 12:49:20;;;;;;;8.00;1.13;;;13.80;99.90;;;;;;5053258;28;20447;-74
2023/10/16 12:51:48;;;;;;;9.68;1.67;;;13.90;99.90;;;;;;4990071;28;20048;-73
2023/10/16 12:54:15;;;;;;;13.15;1.73;;;13.90;99.90;;;;;;5059923;28;20099;-72
2023/10/16 12:56:43;;;;;;;10.23;1.90;;;13.80;99.90;;;;;;5021825;28;20071;-74
2023/10/16 12:59:10;;;;;;;8.00;1.23;;;13.80;99.90;;;;;;5062815;28;20407;-73
2023/10/16 13:01:40;;;;;;;8.50;1.42;;;14.00;99.90;;;;;;5006406;28;22357;-74
2023/10/16 13:04:13;;;;;;;11.30;1.60;;;14.20;99.90;;;;;;5060461;28;20056;-73
2023/10/16 13:06:39;;;;;;;7.72;1.45;;;14.50;99.90;;;;;;4996748;28;20049;-74
2023/10/16 13:09:14;;;;;;;9.52;1.52;;;14.60;99.90;;;;;;5061374;28;20510;-74
2023/10/16 13:11:40;;;;;;;12.00;1.55;;;14.60;99.90;;;;;;5008362;28;20499;-73
2023/10/16 13:14:06;;;;;;;10.23;1.65;;;14.60;99.90;;;;;;5064225;28;20075;-74
2023/10/16 13:16:33;;;;;;;6.57;0.95;;;14.60;99.90;;;;;;5004153;28;20611;-73
2023/10/16 13:19:00;;;;;;;9.75;1.45;;;14.60;99.90;;;;;;5061424;28;20055;-73
2023/10/16 13:21:34;;;;;;;10.75;1.35;;;14.70;99.90;;;;;;4998760;28;20057;-73
2023/10/16 13:24:04;;;;;;;11.50;1.33;;;14.80;99.90;;;;;;5056662;28;20063;-73
2023/10/16 13:26:35;;;;;;;14.80;1.70;;;14.80;99.90;;;;;;5004913;28;20048;-73
2023/10/16 13:29:07;;;;;;;11.23;1.50;;;14.60;99.90;;;;;;5056081;28;20302;-74
2023/10/16 13:31:41;;;;;;;11.65;1.40;;;14.50;99.90;;;;;;5004425;28;20057;-73
2023/10/16 13:34:13;;;;;;;10.32;1.30;;;14.40;99.90;;;;;;5055178;28;20063;-74
2023/10/16 13:36:56;;;;;;;12.05;1.50;;;14.30;99.90;;;;;;5018306;28;20045;-73
2023/10/16 13:39:26;;;;;;;12.07;1.73;;;14.30;99.90;;;;;;5048112;28;20063;-73
2023/10/16 13:41:53;;;;;;;12.13;1.60;;;14.20;99.90;;;;;;4979869;28;20033;-73
2023/10/16 13:44:23;;;;;;;11.30;1.73;;;14.20;99.90;;;;;;5061031;28;20059;-73
2023/10/16 13:46:50;;;;;;;10.07;1.20;;;14.50;99.90;;;;;;4994125;28;20437;-73
2023/10/16 13:49:18;;;;;;;10.32;1.40;;;14.70;99.90;;;;;;5061187;28;20053;-72
2023/10/16 13:51:45;;;;;;;14.48;1.30;;;14.70;99.90;;;;;;4992722;28;76386;-72
2023/10/16 13:54:12;;;;;;;9.38;1.48;;;14.80;99.90;;;;;;5059906;28;20060;-73
2023/10/16 13:56:39;;;;;;;8.80;1.17;;;14.80;99.90;;;;;;4993111;28;20056;-73
2023/10/16 13:59:06;;;;;;;9.70;1.38;;;14.80;99.90;;;;;;5059210;28;20048;-73
2023/10/16 14:01:43;;;;;;;9.43;1.45;;;15.00;99.90;;;;;;5021982;28;20048;-72
2023/10/16 14:04:21;;;;;;;11.85;1.60;;;15.20;99.90;;;;;;5064404;28;20059;-73
2023/10/16 14:06:54;;;;;;;11.02;1.38;;;15.30;99.90;;;;;;4989584;28;20064;-72
2023/10/16 14:09:32;;;;;;;15.27;1.85;;;15.40;99.90;;;;;;5055553;28;20529;-72
2023/10/16 14:12:00;;;;;;;9.98;1.40;;;15.30;99.90;;;;;;4988595;28;20048;-73
2023/10/16 14:14:28;;;;;;;11.60;1.60;;;15.30;99.90;;;;;;5036246;28;20071;-71
2023/10/16 14:17:16;;;;;;;8.73;1.20;;;15.30;99.90;;;;;;5032891;28;20044;-73
2023/10/16 14:19:47;;;;;;;12.27;1.30;;;15.10;99.90;;;;;;5015709;28;20686;-72
2023/10/16 14:22:15;;;;;;;12.73;1.75;;;15.10;99.90;;;;;;5032540;28;20064;-73
2023/10/16 14:24:44;;;;;;;10.15;1.45;;;14.80;99.90;;;;;;5024844;28;20116;-73
2023/10/16 14:27:20;;;;;;;9.52;1.40;;;14.80;99.90;;;;;;5057380;28;20045;-73
2023/10/16 14:29:48;;;;;;;9.82;1.60;;;14.70;99.90;;;;;;5017778;28;20046;-72
2023/10/16 14:32:14;;;;;;;11.65;1.50;;;14.80;99.90;;;;;;5046350;28;20053;-73
2023/10/16 14:34:40;;;;;;;9.27;1.13;;;14.70;99.90;;;;;;5012244;28;20195;-74
2023/10/16 14:37:06;;;;;;;10.93;1.48;;;14.60;99.90;;;;;;5053735;28;20057;-73
2023/10/16 14:39:33;;;;;;;10.02;1.30;;;14.50;99.90;;;;;;5018143;28;20056;-73
2023/10/16 14:42:01;;;;;;;8.52;1.30;;;14.40;99.90;;;;;;5033528;28;20161;-73
2023/10/16 14:44:28;;;;;;;10.05;1.50;;;14.30;99.90;;;;;;5030624;28;20040;-73
2023/10/16 14:46:56;;;;;;;10.40;1.50;;;14.30;99.90;;;;;;5024001;28;20056;-73
2023/10/16 14:49:25;;;;;;;9.45;1.42;;;14.20;99.90;;;;;;5049389;28;20056;-73
2023/10/16 14:51:51;;;;;;;9.65;1.40;;;14.10;99.90;;;;;;5002636;28;20053;-73
2023/10/16 14:54:21;;;;;;;8.43;1.35;;;13.80;99.90;;;;;;5055515;28;20056;-73
2023/10/16 14:56:49;;;;;;;9.38;1.13;;;13.70;99.90;;;;;;5003932;28;20056;-73
2023/10/16 15:10:21;;;;;;;11.45;1.38;;;13.40;99.90;;;;;;5019394;28;102682;-73
2023/10/16 15:12:47;;;;;;;9.68;1.48;;;13.30;99.90;;;;;;5059156;28;20057;-73
2023/10/16 15:15:14;;;;;;;9.50;1.50;;;13.30;99.90;;;;;;5025026;28;117952;-73
2023/10/16 15:17:40;;;;;;;11.93;1.83;;;13.20;99.90;;;;;;5066569;28;20055;-72
2023/10/16 15:20:12;;;;;;;12.32;1.77;;;13.20;99.90;;;;;;5015104;28;207870;-72
2023/10/16 15:22:44;;;;;;;9.07;1.30;;;13.10;99.90;;;;;;5034121;28;20086;-72